Airfield :
LOGIN :

Register | Disclaimer

   EN    FR    IT 

 










Legend :    VFR   Marginal VFR   IFR   Intensive IFR   Very Intensive IFR
Visi :
Ceiling :
>= 8 km
>= 3000ft
5 to 8 km
1000 to 3000 ft
1500m to 5 km
500 to 1000 ft
800 to 1500m
200 to 500 ft
< 800m
< 200 ft
Symbols :   Thunderstorms  Fog  Heavy snow  Heavy precipitations  Wind > 20 kt
SIGMETs :     Misc.  Thunderstorms  Icing  Turbulence  Mountain Waves  Volcanic Ashes






- Airport Elevation : 1090 ft
- IATA code : CFE


LFLC - Clermont-Ferrand Auvergne

CURRENT METAR :
  • 200730Z AUTO 12005KT CAVOK 02/01 Q1012 NOSIG

EXPIRED METARs :
  • 200700Z AUTO 15006KT 110V180 9999 FEW024 02/M00 Q1012 TEMPO 3000 BR
  • 200630Z AUTO VRB02KT CAVOK 01/M00 Q1012 TEMPO 3000 BR
  • 200600Z AUTO 17004KT 130V240 CAVOK 02/00 Q1012 TEMPO 3000 BR
  • 200530Z AUTO 19006KT 9999 FEW020 02/00 Q1012 TEMPO 3000 BR
  • 200500Z AUTO 15003KT 9999 OVC020 03/01 Q1013 TEMPO 3000 BR

TAF TAF LFLC
Valid from the 20 at 03:00 until the 21 at 03:00 UTC


200200Z 2003/2103 VRB02KT 9999 OVC025
PROB30 2003/2008 3000 BR
BECMG 2011/2013 CAVOK
ATIS : +33 4 73 62 74 38



MET'MAP, your aeronautical weather chart ! - Copyright ORBIFLY December 2007 - Disclaimer

ORBIFLY MET'MAP TEAM :

Programming & Development : Alexandra Zaïnal
Concept & Development : Baudouin d'Aumeries
Co-Development & Prog : Marc-Olivier Méhu
Technical & hardware support : Manuel Goepfert

Contact : metmap@orbifly.com




SOURCES & CREDITS :

   NOAA